Time;durP1;ratioP1;P1;durP2;ratioP2;P2;SDS_P1;SDS_P2;PMS_P1;PMS_P2;Temp;Humidity;BMP_temperature;BMP_pressure;BME280_temperature;BME280_humidity;BME280_pressure;Samples;Min_cycle;Max_cycle;Signal;HPM_P1;HPM_P2
2023/04/26 00:01:04;;;;;;;6.50;3.50;;;3.80;99.90;;;;;;5025397;28;20456;-78
2023/04/26 00:03:31;;;;;;;8.27;3.80;;;3.70;99.90;;;;;;5031235;28;20419;-77
2023/04/26 00:06:02;;;;;;;8.90;3.17;;;3.70;99.90;;;;;;5030407;28;20618;-77
2023/04/26 00:08:30;;;;;;;4.70;3.03;;;3.70;99.90;;;;;;5026968;28;20824;-78
2023/04/26 00:10:57;;;;;;;5.40;3.80;;;3.70;99.90;;;;;;5029836;28;20455;-77
2023/04/26 00:13:24;;;;;;;6.40;2.90;;;3.70;99.90;;;;;;5024805;28;20441;-77
2023/04/26 00:15:51;;;;;;;8.70;3.77;;;3.70;99.90;;;;;;5033445;28;20502;-78
2023/04/26 00:18:17;;;;;;;4.07;2.77;;;3.70;99.90;;;;;;5032714;28;20470;-78
2023/04/26 00:20:44;;;;;;;9.40;4.07;;;3.70;99.90;;;;;;5033624;28;20429;-77
2023/04/26 00:23:11;;;;;;;7.03;2.97;;;3.60;99.90;;;;;;5034742;28;20449;-78
2023/04/26 00:25:39;;;;;;;7.40;3.50;;;3.50;99.90;;;;;;5031999;28;21046;-77
2023/04/26 00:28:06;;;;;;;9.03;3.57;;;3.60;99.90;;;;;;5034754;28;20461;-77
2023/04/26 00:30:36;;;;;;;6.80;3.13;;;3.60;99.90;;;;;;5044319;28;20679;-77
2023/04/26 00:33:03;;;;;;;6.40;3.90;;;3.60;99.90;;;;;;5054925;28;20463;-77
2023/04/26 00:35:30;;;;;;;9.90;4.67;;;3.50;99.90;;;;;;5043823;28;20428;-77
2023/04/26 00:37:57;;;;;;;6.40;3.17;;;3.50;99.90;;;;;;5029158;28;20479;-78
2023/04/26 00:40:24;;;;;;;5.20;3.50;;;3.50;99.90;;;;;;5033004;28;20457;-77
2023/04/26 00:42:57;;;;;;;7.27;3.30;;;3.50;99.90;;;;;;5034747;28;20449;-78
2023/04/26 00:45:24;;;;;;;9.17;3.77;;;3.50;99.90;;;;;;5035740;28;20449;-78
2023/04/26 00:47:51;;;;;;;8.10;3.20;;;3.40;99.90;;;;;;5035432;28;20443;-77
2023/04/26 00:50:19;;;;;;;6.23;3.30;;;3.40;99.90;;;;;;5035232;28;20439;-78
2023/04/26 00:52:47;;;;;;;7.13;3.67;;;3.40;99.90;;;;;;5034050;28;20890;-78
2023/04/26 00:55:15;;;;;;;10.40;3.10;;;3.40;99.90;;;;;;5035389;28;20796;-76
2023/04/26 00:57:42;;;;;;;5.73;3.30;;;3.30;99.90;;;;;;5035505;28;20571;-77
2023/04/26 01:00:11;;;;;;;3.90;3.00;;;3.30;99.90;;;;;;5032109;28;20457;-78
2023/04/26 01:02:38;;;;;;;7.77;3.77;;;3.30;99.90;;;;;;5033930;28;20431;-77
2023/04/26 01:05:05;;;;;;;11.47;3.60;;;3.20;99.90;;;;;;5034579;28;20435;-78
2023/04/26 01:07:33;;;;;;;9.20;3.50;;;3.20;99.90;;;;;;5034862;28;20535;-78
2023/04/26 01:10:00;;;;;;;4.60;3.50;;;3.20;99.90;;;;;;5034534;28;21042;-79
2023/04/26 01:12:27;;;;;;;9.70;3.13;;;3.20;99.90;;;;;;5034390;28;21652;-79
2023/04/26 01:14:55;;;;;;;10.27;4.43;;;3.10;99.90;;;;;;5034900;28;20431;-80
2023/04/26 01:17:23;;;;;;;6.97;3.93;;;3.00;99.90;;;;;;5034104;28;20556;-80
2023/04/26 01:19:50;;;;;;;10.97;3.80;;;3.10;99.90;;;;;;5034486;28;20451;-79
2023/04/26 01:22:17;;;;;;;8.67;3.57;;;3.10;99.90;;;;;;5034420;28;20820;-79
2023/04/26 01:24:48;;;;;;;9.93;3.63;;;3.10;99.90;;;;;;5034358;28;20427;-79
2023/04/26 01:27:16;;;;;;;10.10;3.67;;;3.00;99.90;;;;;;5033577;28;20524;-79
2023/04/26 01:29:44;;;;;;;7.40;3.00;;;3.00;99.90;;;;;;5034137;28;20449;-79
2023/04/26 01:32:11;;;;;;;5.57;3.70;;;3.10;99.90;;;;;;5032592;28;20515;-79
2023/04/26 01:34:38;;;;;;;11.07;4.10;;;3.00;99.90;;;;;;5033905;28;20431;-80
2023/04/26 01:37:06;;;;;;;9.70;3.63;;;3.00;99.90;;;;;;5033854;28;20436;-79
2023/04/26 01:39:35;;;;;;;13.53;3.53;;;3.00;99.90;;;;;;5033912;28;21028;-80
2023/04/26 01:42:04;;;;;;;9.03;3.53;;;3.00;99.90;;;;;;5034331;28;20890;-78
2023/04/26 01:44:34;;;;;;;6.37;4.30;;;3.00;99.90;;;;;;5033828;28;20476;-79
2023/04/26 01:47:00;;;;;;;9.70;5.27;;;2.90;99.90;;;;;;5016213;28;21020;-79
2023/04/26 01:49:27;;;;;;;5.40;3.47;;;2.90;99.90;;;;;;5033746;28;20451;-80
2023/04/26 01:51:55;;;;;;;6.20;3.80;;;2.90;99.90;;;;;;5032611;28;20434;-79
2023/04/26 01:54:21;;;;;;;11.07;3.60;;;2.90;99.90;;;;;;5033622;28;20453;-80
2023/04/26 01:56:48;;;;;;;6.17;3.90;;;2.90;99.90;;;;;;5034566;28;20445;-78
2023/04/26 01:59:16;;;;;;;7.93;3.27;;;2.90;99.90;;;;;;5034387;28;20434;-79
2023/04/26 02:01:43;;;;;;;13.27;3.97;;;2.80;99.90;;;;;;5032666;28;20553;-80
2023/04/26 02:04:11;;;;;;;8.63;3.10;;;2.80;99.90;;;;;;5032980;28;20427;-79
2023/04/26 02:06:40;;;;;;;7.97;3.57;;;2.80;99.90;;;;;;5033298;28;20488;-79
2023/04/26 02:09:08;;;;;;;7.47;3.70;;;2.80;99.90;;;;;;5033201;28;20829;-79
2023/04/26 02:11:35;;;;;;;7.80;3.93;;;2.80;99.90;;;;;;5033036;28;20460;-79
2023/04/26 02:14:02;;;;;;;9.47;3.87;;;2.80;99.90;;;;;;5033146;28;20428;-79
2023/04/26 02:16:31;;;;;;;7.63;3.90;;;2.80;99.90;;;;;;5033832;28;20453;-79
2023/04/26 02:18:58;;;;;;;15.77;4.33;;;2.70;99.90;;;;;;5033935;28;21062;-79
2023/04/26 02:21:25;;;;;;;5.53;3.23;;;2.70;99.90;;;;;;5038298;28;20452;-79
2023/04/26 02:23:52;;;;;;;9.53;4.00;;;2.70;99.90;;;;;;5036873;28;20462;-80
2023/04/26 02:26:19;;;;;;;8.20;3.47;;;2.60;99.90;;;;;;5035016;28;20466;-80
2023/04/26 02:28:46;;;;;;;8.77;3.90;;;2.60;99.90;;;;;;5035014;28;20476;-80
2023/04/26 02:31:13;;;;;;;6.03;3.50;;;2.60;99.90;;;;;;5034034;28;20421;-79
2023/04/26 02:33:41;;;;;;;6.70;3.07;;;2.60;99.90;;;;;;5034363;28;20430;-79
2023/04/26 02:36:08;;;;;;;5.33;3.30;;;2.60;99.90;;;;;;5043751;28;20441;-80
2023/04/26 02:38:35;;;;;;;9.30;4.43;;;2.50;99.90;;;;;;5053990;28;20503;-79
2023/04/26 02:41:03;;;;;;;7.73;4.50;;;2.60;99.90;;;;;;5051414;28;20459;-80
2023/04/26 02:43:30;;;;;;;11.53;4.60;;;2.60;99.90;;;;;;5034533;28;20437;-80
2023/04/26 02:45:59;;;;;;;8.07;4.20;;;2.50;99.90;;;;;;5033526;28;20857;-81
2023/04/26 02:48:26;;;;;;;6.17;4.13;;;2.50;99.90;;;;;;5033805;28;20534;-79
2023/04/26 02:50:55;;;;;;;6.47;4.20;;;2.50;99.90;;;;;;5033334;28;20526;-80
2023/04/26 02:53:22;;;;;;;6.83;4.30;;;2.50;99.90;;;;;;5033253;28;20947;-80
2023/04/26 02:55:50;;;;;;;7.60;4.13;;;2.50;99.90;;;;;;5032879;28;20820;-78
2023/04/26 02:58:17;;;;;;;6.73;3.97;;;2.40;99.90;;;;;;5032958;28;20448;-79
2023/04/26 03:00:46;;;;;;;8.43;4.47;;;2.40;99.90;;;;;;5032829;28;20474;-80
2023/04/26 03:03:13;;;;;;;10.57;4.70;;;2.50;99.90;;;;;;5033329;28;20543;-78
2023/04/26 03:05:40;;;;;;;7.60;4.80;;;2.40;99.90;;;;;;5032119;28;20434;-78
2023/04/26 03:08:09;;;;;;;8.00;4.90;;;2.40;99.90;;;;;;5031747;28;20509;-78
2023/04/26 03:10:36;;;;;;;10.87;5.37;;;2.40;99.90;;;;;;5031049;28;20456;-76
2023/04/26 03:13:04;;;;;;;9.93;4.93;;;2.30;99.90;;;;;;5031957;28;20485;-78
2023/04/26 03:15:31;;;;;;;10.07;5.13;;;2.40;99.90;;;;;;5031695;28;20514;-78
2023/04/26 03:17:57;;;;;;;6.50;4.83;;;2.40;99.90;;;;;;5032325;28;20467;-78
2023/04/26 03:20:25;;;;;;;8.30;4.87;;;2.40;99.90;;;;;;5031531;28;20431;-78
2023/04/26 03:22:51;;;;;;;12.17;5.83;;;2.40;99.90;;;;;;5031464;28;20904;-77
2023/04/26 03:25:20;;;;;;;10.80;5.03;;;2.40;99.90;;;;;;5031306;28;20450;-77
2023/04/26 03:27:47;;;;;;;9.53;5.27;;;2.40;99.90;;;;;;5051473;23;20488;-79
2023/04/26 03:30:14;;;;;;;12.53;6.23;;;2.30;99.90;;;;;;5020080;28;20454;-80
2023/04/26 03:32:41;;;;;;;10.27;5.43;;;2.30;99.90;;;;;;5030116;28;20420;-81
2023/04/26 03:35:09;;;;;;;8.70;5.90;;;2.40;99.90;;;;;;5019121;28;20451;-81
2023/04/26 03:37:38;;;;;;;8.60;4.97;;;2.40;99.90;;;;;;5015397;28;20422;-81
2023/04/26 03:40:07;;;;;;;9.80;5.53;;;2.30;99.90;;;;;;4999627;28;20483;-82
2023/04/26 03:42:36;;;;;;;9.83;5.50;;;2.40;99.90;;;;;;4999706;28;20450;-80
2023/04/26 03:45:03;;;;;;;6.27;4.90;;;2.30;99.90;;;;;;5000476;28;20818;-81
2023/04/26 03:47:30;;;;;;;8.83;5.70;;;2.30;99.90;;;;;;5000528;28;20464;-82
2023/04/26 03:49:57;;;;;;;8.30;5.30;;;2.20;99.90;;;;;;5004617;28;20448;-81
2023/04/26 03:52:24;;;;;;;10.83;5.70;;;2.20;99.90;;;;;;5022444;28;20460;-81
2023/04/26 03:54:51;;;;;;;10.93;6.73;;;2.20;99.90;;;;;;5023769;28;20432;-81
2023/04/26 03:57:18;;;;;;;8.57;5.93;;;2.20;99.90;;;;;;5024156;28;20448;-82
2023/04/26 03:59:46;;;;;;;13.03;6.27;;;2.20;99.90;;;;;;5022610;28;20475;-81
2023/04/26 04:02:12;;;;;;;19.67;5.40;;;2.30;99.90;;;;;;5023357;28;20430;-79
2023/04/26 04:04:39;;;;;;;7.83;4.90;;;2.20;99.90;;;;;;5022749;28;20445;-81
2023/04/26 04:07:06;;;;;;;8.40;4.73;;;2.30;99.90;;;;;;5018826;28;20528;-82
2023/04/26 04:09:33;;;;;;;12.37;5.67;;;2.30;99.90;;;;;;5024110;28;20510;-81
2023/04/26 04:12:00;;;;;;;8.57;5.90;;;2.30;99.90;;;;;;5023124;28;20545;-80
2023/04/26 04:14:26;;;;;;;10.80;7.03;;;2.30;99.90;;;;;;5024321;28;21217;-81
2023/04/26 04:16:54;;;;;;;8.93;5.80;;;2.30;99.90;;;;;;5019798;28;20431;-80
2023/04/26 04:19:21;;;;;;;10.70;6.10;;;2.20;99.90;;;;;;5019528;28;20473;-80
2023/04/26 04:21:48;;;;;;;15.63;6.57;;;2.20;99.90;;;;;;5019357;28;20436;-80
2023/04/26 04:24:15;;;;;;;10.70;7.43;;;2.30;99.90;;;;;;5020162;28;20611;-81
2023/04/26 04:26:41;;;;;;;13.10;6.30;;;2.30;99.90;;;;;;5020070;28;21028;-81
2023/04/26 04:29:10;;;;;;;14.27;7.50;;;2.30;99.90;;;;;;5019436;28;20498;-81
2023/04/26 04:31:38;;;;;;;10.37;7.77;;;2.30;99.90;;;;;;5019158;28;20453;-80
2023/04/26 04:34:07;;;;;;;15.57;7.43;;;2.20;99.90;;;;;;5020358;28;20817;-81
2023/04/26 04:36:34;;;;;;;11.93;7.60;;;2.20;99.90;;;;;;5020802;28;20502;-80
2023/04/26 04:39:02;;;;;;;12.93;8.00;;;2.30;99.90;;;;;;5020959;28;20463;-80
2023/04/26 04:41:28;;;;;;;15.70;9.00;;;2.30;99.90;;;;;;5020623;28;20436;-80
2023/04/26 04:43:55;;;;;;;19.27;9.50;;;2.30;99.90;;;;;;5021182;28;20951;-81
2023/04/26 04:46:24;;;;;;;17.03;8.90;;;2.30;99.90;;;;;;5019368;28;20454;-81
2023/04/26 04:48:51;;;;;;;17.30;9.03;;;2.40;99.90;;;;;;5020065;28;20496;-81
2023/04/26 04:51:20;;;;;;;13.57;8.27;;;2.40;99.90;;;;;;5020675;28;20450;-81
2023/04/26 04:53:46;;;;;;;12.47;8.33;;;2.50;99.90;;;;;;5020229;28;20457;-81
2023/04/26 04:56:14;;;;;;;11.40;7.53;;;2.50;99.90;;;;;;5020016;28;20453;-82
2023/04/26 04:58:41;;;;;;;13.07;7.40;;;2.50;99.90;;;;;;5019002;28;20470;-81
2023/04/26 05:01:08;;;;;;;17.97;8.40;;;2.50;99.90;;;;;;5018138;28;20984;-82
2023/04/26 05:03:35;;;;;;;14.93;9.63;;;2.60;99.90;;;;;;5019019;28;20480;-82
2023/04/26 05:06:02;;;;;;;18.43;9.90;;;2.70;99.90;;;;;;5019929;28;20502;-82
2023/04/26 05:08:30;;;;;;;14.70;9.63;;;2.80;99.90;;;;;;5020495;28;20551;-81
2023/04/26 05:10:58;;;;;;;18.53;10.30;;;2.80;99.90;;;;;;5018458;28;20856;-81
2023/04/26 05:13:24;;;;;;;18.20;11.10;;;2.90;99.90;;;;;;5025877;28;20454;-81
2023/04/26 05:15:51;;;;;;;20.73;13.17;;;3.00;99.90;;;;;;5028368;28;20896;-81
2023/04/26 05:18:18;;;;;;;24.00;13.90;;;3.10;99.90;;;;;;5018942;28;20485;-81
2023/04/26 05:20:45;;;;;;;31.57;13.50;;;3.20;99.90;;;;;;5012097;28;20543;-81
2023/04/26 05:23:12;;;;;;;20.37;13.27;;;3.30;99.90;;;;;;5015010;28;20457;-80
2023/04/26 05:25:40;;;;;;;22.50;14.27;;;3.40;99.90;;;;;;5020533;28;20461;-81
2023/04/26 05:28:11;;;;;;;25.10;13.93;;;3.50;99.90;;;;;;5015769;28;21022;-80
2023/04/26 05:30:38;;;;;;;21.60;13.83;;;3.70;99.90;;;;;;5026470;28;20436;-80
2023/04/26 05:33:05;;;;;;;23.13;15.17;;;3.80;99.90;;;;;;5018921;28;20433;-80
2023/04/26 05:35:35;;;;;;;29.30;14.60;;;3.90;99.90;;;;;;5020225;28;20460;-81
2023/04/26 05:38:02;;;;;;;21.77;13.43;;;4.00;99.90;;;;;;5010447;28;20912;-81
2023/04/26 05:40:29;;;;;;;25.23;13.70;;;4.10;99.90;;;;;;5028265;28;20447;-79
2023/04/26 05:42:57;;;;;;;24.93;14.70;;;4.20;99.90;;;;;;5029773;28;20476;-81
2023/04/26 05:45:24;;;;;;;19.73;13.70;;;4.20;99.90;;;;;;5025483;28;20502;-81
2023/04/26 05:47:51;;;;;;;22.53;14.90;;;4.20;99.90;;;;;;5011974;28;20484;-81
2023/04/26 05:50:18;;;;;;;29.27;15.23;;;4.30;99.90;;;;;;5014752;28;20470;-82
2023/04/26 05:52:45;;;;;;;21.50;13.70;;;4.40;99.90;;;;;;5012573;28;20440;-83
2023/04/26 05:55:12;;;;;;;20.20;14.00;;;4.50;99.90;;;;;;5014848;28;20468;-83
2023/04/26 05:57:39;;;;;;;24.80;14.23;;;4.40;99.90;;;;;;5019067;28;20463;-83
2023/04/26 06:00:10;;;;;;;21.70;13.90;;;4.60;99.90;;;;;;5014428;28;20458;-84
2023/04/26 06:02:37;;;;;;;29.10;16.70;;;4.60;99.90;;;;;;5008922;28;20529;-82
2023/04/26 06:05:05;;;;;;;21.20;13.70;;;4.60;99.90;;;;;;5018005;28;20470;-84
2023/04/26 06:07:32;;;;;;;20.83;12.77;;;4.70;99.90;;;;;;5011474;28;20968;-83
2023/04/26 06:10:01;;;;;;;22.53;13.73;;;4.70;99.90;;;;;;5004410;28;20465;-83
2023/04/26 06:12:28;;;;;;;18.37;12.97;;;4.80;99.90;;;;;;5022208;28;20463;-83
2023/04/26 06:14:54;;;;;;;18.13;11.50;;;4.90;99.90;;;;;;5014696;28;20540;-83
2023/04/26 06:17:24;;;;;;;17.53;11.57;;;4.90;77.60;;;;;;5012902;28;20456;-83
2023/04/26 06:19:51;;;;;;;21.00;14.80;;;4.90;90.90;;;;;;5013847;28;20483;-84
2023/04/26 06:22:17;;;;;;;21.10;11.50;;;5.00;86.50;;;;;;5025922;28;20825;-83
2023/04/26 06:24:44;;;;;;;24.20;11.20;;;5.10;90.00;;;;;;5023098;28;20468;-83
2023/04/26 06:27:11;;;;;;;21.07;12.30;;;5.20;40.70;;;;;;5019500;28;20436;-85
2023/04/26 06:29:38;;;;;;;17.60;10.83;;;5.30;16.00;;;;;;5013687;28;20494;-83
2023/04/26 06:32:05;;;;;;;18.70;11.17;;;5.40;15.40;;;;;;5023867;28;20830;-84
2023/04/26 06:34:33;;;;;;;15.03;8.70;;;5.50;5.60;;;;;;5014098;28;20471;-84
2023/04/26 06:37:00;;;;;;;18.60;8.93;;;5.60;1.00;;;;;;5015989;28;20566;-81
2023/04/26 06:39:27;;;;;;;20.70;9.80;;;5.70;1.00;;;;;;5018680;28;20466;-83
2023/04/26 06:41:54;;;;;;;12.60;8.37;;;5.80;1.00;;;;;;5011228;28;20464;-83
2023/04/26 06:44:20;;;;;;;17.57;8.73;;;5.80;1.00;;;;;;5016555;28;20460;-82
2023/04/26 06:46:48;;;;;;;11.77;7.53;;;6.00;1.00;;;;;;5017698;28;20539;-84
2023/04/26 06:49:15;;;;;;;11.23;6.97;;;6.20;1.00;;;;;;5016584;28;20493;-83
2023/04/26 06:51:43;;;;;;;13.60;7.40;;;6.30;1.00;;;;;;5015317;28;20470;-84
2023/04/26 06:54:12;;;;;;;12.47;6.97;;;6.40;1.00;;;;;;5009860;28;20501;-83
2023/04/26 06:56:38;;;;;;;18.00;7.40;;;6.60;1.00;;;;;;5026736;28;20465;-82
2023/04/26 06:59:07;;;;;;;9.47;5.40;;;6.80;1.00;;;;;;5021477;28;20587;-80
2023/04/26 07:01:35;;;;;;;13.23;5.90;;;6.90;1.00;;;;;;5017036;28;20521;-83
2023/04/26 07:04:06;;;;;;;11.00;5.83;;;7.00;1.00;;;;;;5019818;28;20463;-84
2023/04/26 07:06:33;;;;;;;8.40;5.43;;;7.10;1.00;;;;;;5013128;28;20461;-84
2023/04/26 07:09:02;;;;;;;10.90;6.50;;;7.40;1.00;;;;;;5016381;28;20506;-84
2023/04/26 07:11:29;;;;;;;12.90;6.40;;;7.60;99.90;;;;;;5018545;28;20812;-85
2023/04/26 07:13:56;;;;;;;9.60;5.80;;;7.80;1.00;;;;;;5009837;28;20467;-84
2023/04/26 07:16:23;;;;;;;8.50;6.00;;;7.90;98.50;;;;;;5020225;28;20908;-84
2023/04/26 07:18:51;;;;;;;10.03;5.10;;;8.10;2.30;;;;;;5012482;28;20469;-84
2023/04/26 07:21:18;;;;;;;9.13;3.30;;;8.20;1.00;;;;;;5012158;28;20454;-83
2023/04/26 07:23:45;;;;;;;10.13;3.20;;;8.20;1.00;;;;;;5012187;28;20461;-83
2023/04/26 07:26:13;;;;;;;4.70;3.20;;;8.30;99.90;;;;;;5026562;28;20456;-83
2023/04/26 07:28:40;;;;;;;6.70;3.53;;;8.30;99.90;;;;;;5018375;28;20501;-84
2023/04/26 07:31:06;;;;;;;7.93;3.03;;;8.20;99.90;;;;;;5020473;28;20552;-83
2023/04/26 07:33:33;;;;;;;6.33;3.13;;;8.10;99.90;;;;;;5017236;28;20954;-83
2023/04/26 07:36:01;;;;;;;5.90;2.70;;;8.20;99.90;;;;;;5017840;28;20531;-84
2023/04/26 07:38:28;;;;;;;7.33;3.60;;;8.30;1.00;;;;;;5020619;28;20468;-85
2023/04/26 07:40:55;;;;;;;9.90;3.47;;;8.50;73.80;;;;;;5011979;28;20477;-83
2023/04/26 07:43:24;;;;;;;9.03;3.00;;;8.60;99.90;;;;;;5022712;28;20465;-84
2023/04/26 07:45:51;;;;;;;9.80;3.23;;;9.00;1.00;;;;;;5017225;28;20533;-83
2023/04/26 07:48:18;;;;;;;9.33;3.47;;;9.50;22.70;;;;;;5018968;28;20940;-86
2023/04/26 07:50:45;;;;;;;11.93;2.93;;;9.60;1.00;;;;;;5014941;28;20451;-83
2023/04/26 07:53:11;;;;;;;6.97;3.07;;;9.80;1.00;;;;;;5022894;28;20455;-82
2023/04/26 07:55:38;;;;;;;6.43;3.07;;;9.80;1.00;;;;;;5023720;28;20462;-86
2023/04/26 07:58:05;;;;;;;5.07;2.70;;;10.20;1.00;;;;;;5018196;28;20508;-84
2023/04/26 08:00:37;;;;;;;4.10;2.57;;;10.50;1.00;;;;;;5015932;28;20448;-83
2023/04/26 08:03:04;;;;;;;8.10;3.67;;;10.70;1.00;;;;;;5011501;28;20460;-84
2023/04/26 08:05:30;;;;;;;7.73;3.43;;;10.90;1.00;;;;;;5020529;28;20444;-84
2023/04/26 08:07:57;;;;;;;12.03;4.17;;;10.60;1.00;;;;;;5015849;28;21039;-84
2023/04/26 08:10:25;;;;;;;6.13;2.60;;;10.30;1.00;;;;;;5014659;28;20467;-84
2023/04/26 08:12:52;;;;;;;8.33;2.70;;;9.80;1.00;;;;;;5019404;28;20466;-83
2023/04/26 08:15:22;;;;;;;6.90;3.50;;;10.10;1.00;;;;;;5025182;28;21137;-80
2023/04/26 08:17:52;;;;;;;4.60;2.30;;;10.30;1.00;;;;;;5021490;28;20972;-84
2023/04/26 08:20:19;;;;;;;10.60;2.27;;;10.60;1.00;;;;;;5018861;28;20475;-85
2023/04/26 08:22:46;;;;;;;7.20;2.40;;;11.00;1.00;;;;;;5027216;28;20460;-84
2023/04/26 08:25:13;;;;;;;5.03;2.60;;;11.50;1.00;;;;;;5019525;28;20454;-82
2023/04/26 08:27:40;;;;;;;4.53;2.40;;;11.90;1.00;;;;;;5022982;28;20521;-82
2023/04/26 08:30:08;;;;;;;4.70;2.10;;;12.60;1.00;;;;;;5024185;28;20538;-85
2023/04/26 08:32:35;;;;;;;6.60;2.60;;;13.60;1.00;;;;;;5016996;28;20456;-83
2023/04/26 08:35:04;;;;;;;7.73;2.30;;;13.70;1.00;;;;;;5014924;28;20509;-82
2023/04/26 08:37:31;;;;;;;6.90;2.57;;;12.50;99.90;;;;;;5024767;28;20494;-83
2023/04/26 08:39:58;;;;;;;8.83;2.70;;;12.30;99.90;;;;;;5015831;28;20469;-85
2023/04/26 08:42:28;;;;;;;4.23;1.97;;;11.80;99.90;;;;;;5029541;28;20554;-81
2023/04/26 08:44:55;;;;;;;3.67;2.10;;;11.20;99.90;;;;;;5021167;28;20462;-83
2023/04/26 08:47:30;;;;;;;10.20;4.23;;;11.00;99.90;;;;;;5017470;28;20449;-82
2023/04/26 08:50:01;;;;;;;4.83;2.20;;;11.00;99.90;;;;;;5031636;28;20725;-84
2023/04/26 08:52:31;;;;;;;7.10;2.67;;;11.00;99.90;;;;;;5032016;28;20483;-83
2023/04/26 08:54:59;;;;;;;5.30;2.47;;;10.90;99.90;;;;;;5021708;28;20459;-83
2023/04/26 08:57:26;;;;;;;5.90;2.50;;;11.00;99.90;;;;;;5025717;28;20450;-83
2023/04/26 08:59:53;;;;;;;7.40;2.27;;;11.50;99.90;;;;;;5018949;28;20480;-86
2023/04/26 09:02:22;;;;;;;6.23;2.40;;;12.80;99.90;;;;;;5016896;28;20454;-83
2023/04/26 09:04:50;;;;;;;6.03;2.20;;;14.50;99.90;;;;;;5016423;28;20446;-81
2023/04/26 09:07:21;;;;;;;5.70;2.20;;;16.80;99.90;;;;;;5016278;28;20467;-83
2023/04/26 09:09:50;;;;;;;5.23;2.10;;;19.40;99.90;;;;;;5016139;28;20481;-81
2023/04/26 09:12:20;;;;;;;4.13;2.03;;;18.20;99.90;;;;;;5016845;28;20455;-81
2023/04/26 09:14:47;;;;;;;5.50;2.30;;;17.10;99.90;;;;;;5018337;28;20453;-80
2023/04/26 09:17:27;;;;;;;9.47;3.53;;;15.90;99.90;;;;;;5015929;28;20546;-83
2023/04/26 09:19:55;;;;;;;5.20;2.10;;;14.90;99.90;;;;;;5017797;28;21030;-83
2023/04/26 09:22:30;;;;;;;5.40;2.20;;;14.40;99.90;;;;;;5018454;28;20529;-84
2023/04/26 09:24:58;;;;;;;5.90;2.40;;;13.80;99.90;;;;;;5019944;28;20531;-81
2023/04/26 09:27:33;;;;;;;5.87;2.70;;;13.40;99.90;;;;;;5017203;28;20960;-82
2023/04/26 09:30:07;;;;;;;4.00;2.00;;;12.90;99.90;;;;;;5061717;23;20933;-80
2023/04/26 09:32:50;;;;;;;9.90;2.80;;;12.60;99.90;;;;;;5042957;28;20819;-80
2023/04/26 09:35:26;;;;;;;8.13;3.70;;;11.90;99.90;;;;;;5036198;28;20438;-80
2023/04/26 09:37:55;;;;;;;6.57;4.47;;;11.60;99.90;;;;;;5035498;28;20456;-80
2023/04/26 09:40:24;;;;;;;5.90;2.93;;;11.40;99.90;;;;;;5016524;28;20943;-80
2023/04/26 09:43:01;;;;;;;7.63;4.10;;;11.30;99.90;;;;;;5015724;28;20454;-81
2023/04/26 09:45:29;;;;;;;6.10;2.90;;;11.30;99.90;;;;;;5016929;28;20491;-80
2023/04/26 09:48:12;;;;;;;6.30;3.30;;;11.10;99.90;;;;;;5020994;28;20441;-80
2023/04/26 09:50:38;;;;;;;7.63;4.37;;;11.30;99.90;;;;;;5019179;28;20502;-79
2023/04/26 09:53:05;;;;;;;8.73;3.33;;;11.50;99.90;;;;;;5018130;28;20451;-80
2023/04/26 09:55:33;;;;;;;7.20;2.90;;;10.80;1.00;;;;;;5018228;28;20450;-82
2023/04/26 09:58:07;;;;;;;4.60;2.83;;;12.10;99.90;;;;;;5017560;28;20543;-82
2023/04/26 10:00:37;;;;;;;7.37;3.50;;;12.30;99.90;;;;;;5017615;28;20522;-79
2023/04/26 10:03:07;;;;;;;6.30;3.23;;;12.50;99.90;;;;;;5021378;28;20456;-80
2023/04/26 10:05:34;;;;;;;7.77;2.77;;;12.70;99.90;;;;;;5017004;28;20461;-80
2023/04/26 10:08:02;;;;;;;5.97;3.03;;;14.00;99.90;;;;;;5015836;28;20485;-80
2023/04/26 10:10:30;;;;;;;3.97;2.50;;;15.70;99.90;;;;;;5016098;28;20484;-78
2023/04/26 10:12:58;;;;;;;4.73;2.67;;;17.00;99.90;;;;;;5015256;28;20482;-81
2023/04/26 10:15:26;;;;;;;5.93;2.77;;;17.70;99.90;;;;;;5013874;28;20459;-79
2023/04/26 10:17:53;;;;;;;5.53;2.90;;;18.30;99.90;;;;;;5017230;28;20477;-80
2023/04/26 10:20:21;;;;;;;5.83;2.43;;;18.60;99.90;;;;;;5015379;28;20552;-80
2023/04/26 10:22:52;;;;;;;7.53;3.13;;;17.90;99.90;;;;;;5015463;28;20449;-80
2023/04/26 10:25:19;;;;;;;4.73;3.00;;;17.00;99.90;;;;;;5015939;28;20936;-80
2023/04/26 10:27:51;;;;;;;6.37;3.33;;;16.40;99.90;;;;;;5015088;28;20598;-79
2023/04/26 10:30:21;;;;;;;6.33;3.50;;;14.70;99.90;;;;;;5014422;28;20538;-80
2023/04/26 10:33:15;;;;;;;7.27;4.20;;;14.40;99.90;;;;;;5014410;28;20464;-79
2023/04/26 10:36:08;;;;;;;7.37;3.37;;;14.70;99.90;;;;;;5008612;28;20455;-79
2023/04/26 10:38:36;;;;;;;4.93;3.10;;;16.00;99.90;;;;;;5015956;28;21175;-80
2023/04/26 10:41:31;;;;;;;5.50;3.70;;;16.70;99.90;;;;;;5014630;28;20957;-79
2023/04/26 10:44:00;;;;;;;8.17;3.37;;;16.20;99.90;;;;;;5016345;28;20451;-79
2023/04/26 10:46:36;;;;;;;7.10;3.70;;;15.20;99.90;;;;;;5012138;28;21004;-79
2023/04/26 10:49:18;;;;;;;6.90;2.83;;;14.50;99.90;;;;;;5015586;28;20485;-78
2023/04/26 10:52:10;;;;;;;6.13;3.10;;;14.10;99.90;;;;;;5008703;28;20465;-80
2023/04/26 10:54:52;;;;;;;9.80;3.33;;;13.80;99.90;;;;;;5016765;28;20468;-80
2023/04/26 10:57:20;;;;;;;6.07;3.10;;;13.50;99.90;;;;;;5010440;28;20464;-79
2023/04/26 11:00:19;;;;;;;6.40;3.10;;;13.20;99.90;;;;;;5012138;28;20477;-79
2023/04/26 11:03:08;;;;;;;3.53;2.40;;;13.10;99.90;;;;;;5011593;28;20515;-79
2023/04/26 11:05:48;;;;;;;6.07;2.47;;;12.80;99.90;;;;;;5013611;28;20463;-79
2023/04/26 11:08:16;;;;;;;9.03;3.00;;;12.90;99.90;;;;;;5026531;28;20462;-80
2023/04/26 11:10:46;;;;;;;3.53;2.13;;;12.70;99.90;;;;;;5014689;28;20486;-79
2023/04/26 11:13:12;;;;;;;8.37;2.70;;;12.70;99.90;;;;;;5013220;28;20461;-78
2023/04/26 11:15:39;;;;;;;6.43;3.20;;;12.80;99.90;;;;;;5014917;28;20982;-79
2023/04/26 11:18:07;;;;;;;4.23;2.10;;;12.80;99.90;;;;;;5015218;28;20455;-80
2023/04/26 11:20:34;;;;;;;5.60;2.83;;;13.20;99.90;;;;;;5007414;28;20452;-78
2023/04/26 11:23:01;;;;;;;4.30;2.50;;;13.50;99.90;;;;;;5014067;28;20471;-79
2023/04/26 11:25:30;;;;;;;3.50;2.20;;;15.30;99.90;;;;;;5011873;28;20493;-80
2023/04/26 11:27:58;;;;;;;3.80;1.97;;;16.20;99.90;;;;;;5012818;28;20956;-80
2023/04/26 11:30:25;;;;;;;5.40;2.20;;;16.20;99.90;;;;;;5011687;28;20508;-79
2023/04/26 11:32:52;;;;;;;6.20;2.03;;;16.00;99.90;;;;;;5028179;28;20456;-81
2023/04/26 11:35:23;;;;;;;3.90;2.03;;;15.70;99.90;;;;;;5016528;28;20856;-79
2023/04/26 11:37:51;;;;;;;3.90;2.33;;;15.20;99.90;;;;;;5015237;28;20489;-81
2023/04/26 11:40:18;;;;;;;5.70;2.17;;;14.60;99.90;;;;;;5017499;28;20525;-80
2023/04/26 11:42:45;;;;;;;7.93;2.23;;;14.20;99.90;;;;;;5019427;28;20661;-80
2023/04/26 11:45:15;;;;;;;5.70;2.17;;;13.80;99.90;;;;;;5020668;28;20461;-79
2023/04/26 11:47:44;;;;;;;6.90;2.00;;;13.50;99.90;;;;;;5019527;28;20458;-79
2023/04/26 11:50:11;;;;;;;5.13;2.40;;;13.50;99.90;;;;;;5002785;28;20536;-80
2023/04/26 11:52:40;;;;;;;6.10;2.13;;;13.50;99.90;;;;;;5003681;28;20454;-77
2023/04/26 11:55:09;;;;;;;5.10;2.60;;;14.00;99.90;;;;;;5040109;28;20477;-80
2023/04/26 11:57:36;;;;;;;5.77;2.00;;;14.90;99.90;;;;;;5025947;28;20465;-79
2023/04/26 12:00:11;;;;;;;4.30;2.03;;;15.50;99.90;;;;;;5014186;28;20470;-79
2023/04/26 12:02:38;;;;;;;8.17;2.90;;;15.60;99.90;;;;;;5020567;28;20449;-78
2023/04/26 12:05:07;;;;;;;5.03;2.57;;;15.30;99.90;;;;;;5018272;28;20442;-78
2023/04/26 12:07:36;;;;;;;4.33;1.90;;;15.10;99.90;;;;;;5020189;28;20456;-78
2023/04/26 12:10:18;;;;;;;5.50;1.90;;;15.00;99.90;;;;;;5018601;28;20492;-78
2023/04/26 12:12:47;;;;;;;6.90;2.37;;;14.80;99.90;;;;;;5016837;28;20453;-79
2023/04/26 12:15:15;;;;;;;7.30;2.77;;;14.40;99.90;;;;;;5024499;28;20787;-78
2023/04/26 12:17:51;;;;;;;5.37;2.63;;;14.50;99.90;;;;;;5018195;28;20452;-78
2023/04/26 12:20:19;;;;;;;9.27;2.50;;;14.60;99.90;;;;;;5025702;28;20481;-79
2023/04/26 12:23:01;;;;;;;6.67;2.07;;;15.30;99.90;;;;;;5017960;28;20455;-79
2023/04/26 12:25:30;;;;;;;2.90;1.80;;;16.00;99.90;;;;;;5024667;28;20447;-79
2023/04/26 12:27:57;;;;;;;2.43;1.53;;;16.20;99.90;;;;;;5025052;28;20538;-78
2023/04/26 12:30:26;;;;;;;3.23;1.60;;;16.70;99.90;;;;;;5023973;28;20495;-79
2023/04/26 12:32:53;;;;;;;4.63;1.90;;;17.40;99.90;;;;;;5024191;28;20453;-79
2023/04/26 12:35:19;;;;;;;2.97;1.77;;;18.10;99.90;;;;;;5023391;28;20450;-79
2023/04/26 12:37:48;;;;;;;5.40;2.10;;;18.20;99.90;;;;;;5019980;28;20459;-79
2023/04/26 12:40:15;;;;;;;7.30;2.30;;;18.70;99.90;;;;;;5022282;28;20497;-80
2023/04/26 12:42:43;;;;;;;4.77;2.00;;;18.40;99.90;;;;;;5025184;28;20448;-79
2023/04/26 12:45:10;;;;;;;4.00;1.77;;;18.20;99.90;;;;;;5017035;28;20795;-78
2023/04/26 12:47:37;;;;;;;2.97;1.80;;;18.40;99.90;;;;;;5025605;28;20520;-79
2023/04/26 12:50:05;;;;;;;5.00;1.60;;;17.70;99.90;;;;;;5015597;28;20527;-79
2023/04/26 12:52:32;;;;;;;2.90;1.60;;;17.90;99.90;;;;;;5026832;28;20457;-79
2023/04/26 12:54:59;;;;;;;2.23;1.30;;;17.90;99.90;;;;;;5024420;28;20556;-80
2023/04/26 12:57:25;;;;;;;4.23;2.00;;;16.70;99.90;;;;;;5024367;28;20525;-79